sensor_id;sensor_type;location;lat;lon;timestamp;pressure;altitude;pressure_sealevel;temperature;humidity
40992;BME280;29633;49.168;9.848;2023-04-06T00:01:27;97091.66;;;7.62;53.13
40992;BME280;29633;49.168;9.848;2023-04-06T00:03:53;97090.81;;;7.62;53.26
40992;BME280;29633;49.168;9.848;2023-04-06T00:06:18;97090.06;;;7.60;53.19
40992;BME280;29633;49.168;9.848;2023-04-06T00:08:44;97088.44;;;7.59;53.07
40992;BME280;29633;49.168;9.848;2023-04-06T00:11:10;97086.13;;;7.54;53.12
40992;BME280;29633;49.168;9.848;2023-04-06T00:13:35;97079.50;;;7.50;53.05
40992;BME280;29633;49.168;9.848;2023-04-06T00:16:01;97073.84;;;7.45;53.11
40992;BME280;29633;49.168;9.848;2023-04-06T00:18:27;97080.81;;;7.43;53.17
40992;BME280;29633;49.168;9.848;2023-04-06T00:20:53;97078.31;;;7.41;52.97
40992;BME280;29633;49.168;9.848;2023-04-06T00:23:18;97079.34;;;7.39;53.10
40992;BME280;29633;49.168;9.848;2023-04-06T00:25:44;97078.63;;;7.37;53.14
40992;BME280;29633;49.168;9.848;2023-04-06T00:28:09;97073.69;;;7.34;53.14
40992;BME280;29633;49.168;9.848;2023-04-06T00:30:35;97080.66;;;7.32;53.17
40992;BME280;29633;49.168;9.848;2023-04-06T00:33:01;97074.78;;;7.30;53.09
40992;BME280;29633;49.168;9.848;2023-04-06T00:35:26;97073.31;;;7.26;53.23
40992;BME280;29633;49.168;9.848;2023-04-06T00:37:52;97072.56;;;7.24;53.09
40992;BME280;29633;49.168;9.848;2023-04-06T00:40:17;97070.09;;;7.22;53.11
40992;BME280;29633;49.168;9.848;2023-04-06T00:42:43;97069.34;;;7.20;53.20
40992;BME280;29633;49.168;9.848;2023-04-06T00:45:09;97066.97;;;7.17;53.19
40992;BME280;29633;49.168;9.848;2023-04-06T00:47:35;97074.81;;;7.16;53.13
40992;BME280;29633;49.168;9.848;2023-04-06T00:50:01;97061.19;;;7.14;53.06
40992;BME280;29633;49.168;9.848;2023-04-06T00:52:26;97057.88;;;7.12;53.17
40992;BME280;29633;49.168;9.848;2023-04-06T00:54:53;97058.78;;;7.11;53.06
40992;BME280;29633;49.168;9.848;2023-04-06T00:57:19;97060.66;;;7.09;52.93
40992;BME280;29633;49.168;9.848;2023-04-06T00:59:45;97055.59;;;7.07;53.13
40992;BME280;29633;49.168;9.848;2023-04-06T01:02:10;97053.00;;;7.07;53.13
40992;BME280;29633;49.168;9.848;2023-04-06T01:04:36;97060.75;;;7.07;53.25
40992;BME280;29633;49.168;9.848;2023-04-06T01:07:02;97051.47;;;7.05;53.17
40992;BME280;29633;49.168;9.848;2023-04-06T01:09:28;97044.91;;;6.99;53.18
40992;BME280;29633;49.168;9.848;2023-04-06T01:11:57;97056.25;;;6.97;53.47
40992;BME280;29633;49.168;9.848;2023-04-06T01:14:23;97044.47;;;6.92;53.32
40992;BME280;29633;49.168;9.848;2023-04-06T01:16:49;97039.59;;;6.88;53.40
40992;BME280;29633;49.168;9.848;2023-04-06T01:19:15;97034.63;;;6.85;53.52
40992;BME280;29633;49.168;9.848;2023-04-06T01:21:41;97040.34;;;6.76;53.48
40992;BME280;29633;49.168;9.848;2023-04-06T01:24:08;97037.88;;;6.74;53.44
40992;BME280;29633;49.168;9.848;2023-04-06T01:26:34;97038.69;;;6.75;53.35
40992;BME280;29633;49.168;9.848;2023-04-06T01:29:01;97031.78;;;6.75;53.53
40992;BME280;29633;49.168;9.848;2023-04-06T01:31:27;97027.47;;;6.76;53.33
40992;BME280;29633;49.168;9.848;2023-04-06T01:33:53;97024.97;;;6.74;53.49
40992;BME280;29633;49.168;9.848;2023-04-06T01:36:18;97026.72;;;6.74;53.48
40992;BME280;29633;49.168;9.848;2023-04-06T01:38:44;97030.31;;;6.71;53.49
40992;BME280;29633;49.168;9.848;2023-04-06T01:41:10;97025.38;;;6.68;53.56
40992;BME280;29633;49.168;9.848;2023-04-06T01:43:36;97024.41;;;6.69;53.48
40992;BME280;29633;49.168;9.848;2023-04-06T01:46:03;97015.88;;;6.69;53.51
40992;BME280;29633;49.168;9.848;2023-04-06T01:48:28;97026.09;;;6.70;53.60
40992;BME280;29633;49.168;9.848;2023-04-06T01:50:54;97021.84;;;6.69;53.49
40992;BME280;29633;49.168;9.848;2023-04-06T01:53:21;97024.53;;;6.68;53.31
40992;BME280;29633;49.168;9.848;2023-04-06T01:55:46;97024.59;;;6.66;53.46
40992;BME280;29633;49.168;9.848;2023-04-06T01:58:12;97016.06;;;6.66;53.28
40992;BME280;29633;49.168;9.848;2023-04-06T02:00:38;97017.19;;;6.62;53.38
40992;BME280;29633;49.168;9.848;2023-04-06T02:03:04;97013.97;;;6.58;53.27
40992;BME280;29633;49.168;9.848;2023-04-06T02:05:31;97015.78;;;6.56;53.47
40992;BME280;29633;49.168;9.848;2023-04-06T02:07:58;97014.13;;;6.55;53.52
40992;BME280;29633;49.168;9.848;2023-04-06T02:10:26;97011.56;;;6.55;53.55
40992;BME280;29633;49.168;9.848;2023-04-06T02:12:52;97009.16;;;6.52;53.37
40992;BME280;29633;49.168;9.848;2023-04-06T02:15:17;97007.50;;;6.51;53.37
40992;BME280;29633;49.168;9.848;2023-04-06T02:17:43;97024.63;;;6.52;53.46
40992;BME280;29633;49.168;9.848;2023-04-06T02:20:09;97017.81;;;6.51;53.47
40992;BME280;29633;49.168;9.848;2023-04-06T02:22:35;97015.41;;;6.48;53.42
40992;BME280;29633;49.168;9.848;2023-04-06T02:25:01;97016.34;;;6.47;53.47
40992;BME280;29633;49.168;9.848;2023-04-06T02:27:26;97014.88;;;6.43;53.48
40992;BME280;29633;49.168;9.848;2023-04-06T02:29:52;97013.50;;;6.37;53.64
40992;BME280;29633;49.168;9.848;2023-04-06T02:32:18;97015.34;;;6.35;53.62
40992;BME280;29633;49.168;9.848;2023-04-06T02:34:43;97004.41;;;6.32;53.70
40992;BME280;29633;49.168;9.848;2023-04-06T02:37:09;97011.28;;;6.31;53.50
40992;BME280;29633;49.168;9.848;2023-04-06T02:39:35;97008.72;;;6.31;53.63
40992;BME280;29633;49.168;9.848;2023-04-06T02:42:01;97003.66;;;6.30;53.53
40992;BME280;29633;49.168;9.848;2023-04-06T02:44:26;97000.34;;;6.28;53.69
40992;BME280;29633;49.168;9.848;2023-04-06T02:46:52;96998.78;;;6.25;53.45
40992;BME280;29633;49.168;9.848;2023-04-06T02:49:18;96999.59;;;6.26;53.50
40992;BME280;29633;49.168;9.848;2023-04-06T02:51:43;97006.78;;;6.21;53.30
40992;BME280;29633;49.168;9.848;2023-04-06T02:54:11;97008.78;;;6.16;53.42
40992;BME280;29633;49.168;9.848;2023-04-06T02:56:37;96999.44;;;6.15;53.61
40992;BME280;29633;49.168;9.848;2023-04-06T02:59:02;97000.59;;;6.09;53.62
40992;BME280;29633;49.168;9.848;2023-04-06T03:01:28;96999.06;;;6.07;53.70
40992;BME280;29633;49.168;9.848;2023-04-06T03:03:53;97003.38;;;6.06;53.62
40992;BME280;29633;49.168;9.848;2023-04-06T03:06:19;97005.09;;;6.06;53.73
40992;BME280;29633;49.168;9.848;2023-04-06T03:08:45;97004.38;;;6.04;53.41
40992;BME280;29633;49.168;9.848;2023-04-06T03:11:11;97008.88;;;6.00;53.65
40992;BME280;29633;49.168;9.848;2023-04-06T03:13:37;97002.25;;;5.96;53.91
40992;BME280;29633;49.168;9.848;2023-04-06T03:16:04;97005.00;;;5.93;53.74
40992;BME280;29633;49.168;9.848;2023-04-06T03:18:30;97004.91;;;5.94;53.83
40992;BME280;29633;49.168;9.848;2023-04-06T03:20:56;97004.16;;;5.92;53.90
40992;BME280;29633;49.168;9.848;2023-04-06T03:23:21;97004.25;;;5.91;53.86
40992;BME280;29633;49.168;9.848;2023-04-06T03:25:47;97005.25;;;5.88;53.78
40992;BME280;29633;49.168;9.848;2023-04-06T03:28:13;97008.66;;;5.89;53.62
40992;BME280;29633;49.168;9.848;2023-04-06T03:30:38;97010.22;;;5.91;53.74
40992;BME280;29633;49.168;9.848;2023-04-06T03:33:04;97011.25;;;5.89;53.68
40992;BME280;29633;49.168;9.848;2023-04-06T03:35:29;97009.81;;;5.83;53.72
40992;BME280;29633;49.168;9.848;2023-04-06T03:37:55;97011.66;;;5.81;54.05
40992;BME280;29633;49.168;9.848;2023-04-06T03:40:21;97005.56;;;5.82;53.77
40992;BME280;29633;49.168;9.848;2023-04-06T03:42:46;97010.63;;;5.84;53.72
40992;BME280;29633;49.168;9.848;2023-04-06T03:45:12;97008.91;;;5.84;53.92
40992;BME280;29633;49.168;9.848;2023-04-06T03:47:40;97009.81;;;5.83;53.99
40992;BME280;29633;49.168;9.848;2023-04-06T03:50:06;97003.94;;;5.81;53.84
40992;BME280;29633;49.168;9.848;2023-04-06T03:52:32;97016.78;;;5.81;53.89
40992;BME280;29633;49.168;9.848;2023-04-06T03:54:57;97011.72;;;5.80;53.79
40992;BME280;29633;49.168;9.848;2023-04-06T03:57:23;97022.13;;;5.78;53.83
40992;BME280;29633;49.168;9.848;2023-04-06T03:59:49;97022.19;;;5.77;53.85
40992;BME280;29633;49.168;9.848;2023-04-06T04:02:14;97019.69;;;5.75;53.77
40992;BME280;29633;49.168;9.848;2023-04-06T04:04:40;97018.91;;;5.75;53.72
40992;BME280;29633;49.168;9.848;2023-04-06T04:07:06;97018.13;;;5.73;53.76
40992;BME280;29633;49.168;9.848;2023-04-06T04:09:31;97008.75;;;5.72;53.76
40992;BME280;29633;49.168;9.848;2023-04-06T04:11:57;97023.38;;;5.71;53.73
40992;BME280;29633;49.168;9.848;2023-04-06T04:14:22;97020.88;;;5.70;53.89
40992;BME280;29633;49.168;9.848;2023-04-06T04:16:48;97019.34;;;5.67;53.81
40992;BME280;29633;49.168;9.848;2023-04-06T04:19:14;97023.63;;;5.67;53.93
40992;BME280;29633;49.168;9.848;2023-04-06T04:21:44;97020.22;;;5.66;53.89
40992;BME280;29633;49.168;9.848;2023-04-06T04:24:10;97024.47;;;5.67;53.49
40992;BME280;29633;49.168;9.848;2023-04-06T04:26:36;97026.22;;;5.67;53.73
40992;BME280;29633;49.168;9.848;2023-04-06T04:29:02;97025.44;;;5.65;53.88
40992;BME280;29633;49.168;9.848;2023-04-06T04:31:27;97023.72;;;5.65;53.80
40992;BME280;29633;49.168;9.848;2023-04-06T04:33:53;97022.09;;;5.64;53.79
40992;BME280;29633;49.168;9.848;2023-04-06T04:36:19;97032.38;;;5.64;53.87
40992;BME280;29633;49.168;9.848;2023-04-06T04:38:45;97030.78;;;5.62;53.94
40992;BME280;29633;49.168;9.848;2023-04-06T04:41:10;97037.50;;;5.64;53.84
40992;BME280;29633;49.168;9.848;2023-04-06T04:43:36;97033.16;;;5.65;53.79
40992;BME280;29633;49.168;9.848;2023-04-06T04:46:01;97035.84;;;5.63;53.79
40992;BME280;29633;49.168;9.848;2023-04-06T04:48:29;97038.50;;;5.62;53.80
40992;BME280;29633;49.168;9.848;2023-04-06T04:50:54;97042.66;;;5.64;54.04
40992;BME280;29633;49.168;9.848;2023-04-06T04:53:20;97043.56;;;5.63;53.87
40992;BME280;29633;49.168;9.848;2023-04-06T04:55:46;97041.00;;;5.63;53.90
40992;BME280;29633;49.168;9.848;2023-04-06T04:58:11;97043.56;;;5.63;53.63
40992;BME280;29633;49.168;9.848;2023-04-06T05:00:44;97046.97;;;5.64;53.91
40992;BME280;29633;49.168;9.848;2023-04-06T05:03:14;97041.72;;;5.65;53.69
40992;BME280;29633;49.168;9.848;2023-04-06T05:05:41;97043.47;;;5.65;53.63
40992;BME280;29633;49.168;9.848;2023-04-06T05:08:07;97044.28;;;5.65;53.80
40992;BME280;29633;49.168;9.848;2023-04-06T05:10:32;97049.44;;;5.65;53.83
40992;BME280;29633;49.168;9.848;2023-04-06T05:12:59;97046.84;;;5.65;53.78
40992;BME280;29633;49.168;9.848;2023-04-06T05:15:25;97047.63;;;5.67;53.87
40992;BME280;29633;49.168;9.848;2023-04-06T05:17:50;97045.06;;;5.67;53.61
40992;BME280;29633;49.168;9.848;2023-04-06T05:20:18;97053.50;;;5.69;53.90
40992;BME280;29633;49.168;9.848;2023-04-06T05:22:44;97050.00;;;5.70;53.70
40992;BME280;29633;49.168;9.848;2023-04-06T05:25:09;97051.75;;;5.70;53.59
40992;BME280;29633;49.168;9.848;2023-04-06T05:27:35;97054.06;;;5.74;53.75
40992;BME280;29633;49.168;9.848;2023-04-06T05:30:00;97065.00;;;5.78;53.71
40992;BME280;29633;49.168;9.848;2023-04-06T05:32:27;97053.72;;;5.80;53.81
40992;BME280;29633;49.168;9.848;2023-04-06T05:34:53;97064.66;;;5.84;53.68
40992;BME280;29633;49.168;9.848;2023-04-06T05:37:18;97061.88;;;5.88;53.79
40992;BME280;29633;49.168;9.848;2023-04-06T05:39:44;97060.78;;;5.92;53.82
40992;BME280;29633;49.168;9.848;2023-04-06T05:42:10;97069.03;;;5.98;53.70
40992;BME280;29633;49.168;9.848;2023-04-06T05:44:37;97069.50;;;6.04;53.90
40992;BME280;29633;49.168;9.848;2023-04-06T05:47:02;97064.94;;;6.09;53.87
40992;BME280;29633;49.168;9.848;2023-04-06T05:49:28;97063.78;;;6.15;53.89
40992;BME280;29633;49.168;9.848;2023-04-06T05:51:54;97067.72;;;6.20;53.83
40992;BME280;29633;49.168;9.848;2023-04-06T05:54:20;97072.50;;;6.26;53.69
40992;BME280;29633;49.168;9.848;2023-04-06T05:56:46;97065.16;;;6.34;53.78
40992;BME280;29633;49.168;9.848;2023-04-06T05:59:11;97073.34;;;6.41;53.92
40992;BME280;29633;49.168;9.848;2023-04-06T06:01:37;97074.75;;;6.47;53.63
40992;BME280;29633;49.168;9.848;2023-04-06T06:04:03;97072.56;;;6.55;53.57
40992;BME280;29633;49.168;9.848;2023-04-06T06:06:29;97074.66;;;6.62;53.96
40992;BME280;29633;49.168;9.848;2023-04-06T06:09:00;97074.13;;;6.71;54.00
40992;BME280;29633;49.168;9.848;2023-04-06T06:11:27;97074.50;;;6.79;53.79
40992;BME280;29633;49.168;9.848;2023-04-06T06:13:52;97079.97;;;6.87;53.98
40992;BME280;29633;49.168;9.848;2023-04-06T06:16:18;97074.28;;;6.97;54.00
40992;BME280;29633;49.168;9.848;2023-04-06T06:18:44;97064.34;;;7.05;53.79
40992;BME280;29633;49.168;9.848;2023-04-06T06:21:10;97065.41;;;7.15;53.84
40992;BME280;29633;49.168;9.848;2023-04-06T06:23:38;97074.44;;;7.22;53.87
40992;BME280;29633;49.168;9.848;2023-04-06T06:26:03;97077.16;;;7.33;53.94
40992;BME280;29633;49.168;9.848;2023-04-06T06:28:30;97074.13;;;7.40;53.98
40992;BME280;29633;49.168;9.848;2023-04-06T06:30:55;97071.78;;;7.50;53.89
40992;BME280;29633;49.168;9.848;2023-04-06T06:33:21;97077.28;;;7.58;53.83
40992;BME280;29633;49.168;9.848;2023-04-06T06:35:47;97077.50;;;7.68;53.91
40992;BME280;29633;49.168;9.848;2023-04-06T06:38:12;97076.09;;;7.76;53.88
40992;BME280;29633;49.168;9.848;2023-04-06T06:40:40;97073.13;;;7.82;53.99
40992;BME280;29633;49.168;9.848;2023-04-06T06:43:06;97077.78;;;7.90;54.00
40992;BME280;29633;49.168;9.848;2023-04-06T06:45:32;97078.00;;;8.00;54.02
40992;BME280;29633;49.168;9.848;2023-04-06T06:47:58;97075.75;;;8.08;54.04
40992;BME280;29633;49.168;9.848;2023-04-06T06:50:23;97074.22;;;8.18;54.00
40992;BME280;29633;49.168;9.848;2023-04-06T06:52:51;97078.81;;;8.27;54.12
40992;BME280;29633;49.168;9.848;2023-04-06T06:55:17;97072.31;;;8.34;54.14
40992;BME280;29633;49.168;9.848;2023-04-06T06:57:44;97084.53;;;8.45;54.20
40992;BME280;29633;49.168;9.848;2023-04-06T07:00:12;97069.22;;;8.54;54.14
40992;BME280;29633;49.168;9.848;2023-04-06T07:02:38;97075.63;;;8.61;54.22
40992;BME280;29633;49.168;9.848;2023-04-06T07:05:04;97076.69;;;8.71;54.05
40992;BME280;29633;49.168;9.848;2023-04-06T07:07:33;97081.22;;;8.80;54.15
40992;BME280;29633;49.168;9.848;2023-04-06T07:10:00;97075.81;;;8.83;54.12
40992;BME280;29633;49.168;9.848;2023-04-06T07:12:26;97083.97;;;8.90;53.85
40992;BME280;29633;49.168;9.848;2023-04-06T07:14:52;97070.00;;;9.05;53.69
40992;BME280;29633;49.168;9.848;2023-04-06T07:17:18;97071.44;;;9.22;53.42
40992;BME280;29633;49.168;9.848;2023-04-06T07:19:43;97075.66;;;9.23;53.56
40992;BME280;29633;49.168;9.848;2023-04-06T07:22:09;97079.06;;;9.23;53.54
40992;BME280;29633;49.168;9.848;2023-04-06T07:24:35;97086.97;;;9.22;53.66
40992;BME280;29633;49.168;9.848;2023-04-06T07:27:00;97080.13;;;9.21;53.81
40992;BME280;29633;49.168;9.848;2023-04-06T07:29:27;97085.38;;;9.19;53.82
40992;BME280;29633;49.168;9.848;2023-04-06T07:31:53;97082.78;;;9.19;53.76
40992;BME280;29633;49.168;9.848;2023-04-06T07:34:19;97086.00;;;9.23;53.83
40992;BME280;29633;49.168;9.848;2023-04-06T07:36:47;97085.59;;;9.29;53.85
40992;BME280;29633;49.168;9.848;2023-04-06T07:39:13;97089.41;;;9.36;53.69
40992;BME280;29633;49.168;9.848;2023-04-06T07:41:38;97090.84;;;9.40;53.85
40992;BME280;29633;49.168;9.848;2023-04-06T07:44:04;97096.19;;;9.50;53.83
40992;BME280;29633;49.168;9.848;2023-04-06T07:46:30;97090.16;;;9.62;53.74
40992;BME280;29633;49.168;9.848;2023-04-06T07:48:57;97098.56;;;9.76;53.66
40992;BME280;29633;49.168;9.848;2023-04-06T07:51:23;97093.22;;;9.91;53.71
40992;BME280;29633;49.168;9.848;2023-04-06T07:53:50;97095.13;;;10.00;53.61
40992;BME280;29633;49.168;9.848;2023-04-06T07:56:16;97091.06;;;10.08;53.67
40992;BME280;29633;49.168;9.848;2023-04-06T07:58:42;97097.00;;;10.21;53.61
40992;BME280;29633;49.168;9.848;2023-04-06T08:01:07;97101.28;;;10.33;53.46
40992;BME280;29633;49.168;9.848;2023-04-06T08:03:34;97096.97;;;10.45;53.55
40992;BME280;29633;49.168;9.848;2023-04-06T08:06:00;97089.19;;;10.56;53.50
40992;BME280;29633;49.168;9.848;2023-04-06T08:08:26;97090.19;;;10.66;53.65
40992;BME280;29633;49.168;9.848;2023-04-06T08:10:51;97096.06;;;10.79;53.56
40992;BME280;29633;49.168;9.848;2023-04-06T08:13:17;97090.91;;;10.91;53.21
40992;BME280;29633;49.168;9.848;2023-04-06T08:15:45;97098.19;;;10.97;53.40
40992;BME280;29633;49.168;9.848;2023-04-06T08:18:11;97085.47;;;11.05;53.54
40992;BME280;29633;49.168;9.848;2023-04-06T08:20:36;97092.78;;;11.11;53.68
40992;BME280;29633;49.168;9.848;2023-04-06T08:23:02;97092.31;;;11.17;53.56
40992;BME280;29633;49.168;9.848;2023-04-06T08:25:28;97091.72;;;11.24;53.53
40992;BME280;29633;49.168;9.848;2023-04-06T08:27:53;97086.38;;;11.37;53.51
40992;BME280;29633;49.168;9.848;2023-04-06T08:30:19;97085.69;;;11.46;53.59
40992;BME280;29633;49.168;9.848;2023-04-06T08:32:45;97088.47;;;11.54;53.40
40992;BME280;29633;49.168;9.848;2023-04-06T08:35:11;97086.94;;;11.63;53.38
40992;BME280;29633;49.168;9.848;2023-04-06T08:37:39;97087.88;;;11.73;53.70
40992;BME280;29633;49.168;9.848;2023-04-06T08:40:06;97091.00;;;11.88;53.43
40992;BME280;29633;49.168;9.848;2023-04-06T08:42:32;97084.38;;;11.95;53.45
40992;BME280;29633;49.168;9.848;2023-04-06T08:44:59;97084.59;;;12.03;53.22
40992;BME280;29633;49.168;9.848;2023-04-06T08:47:24;97081.22;;;12.12;53.31
40992;BME280;29633;49.168;9.848;2023-04-06T08:49:50;97074.09;;;12.25;53.29
40992;BME280;29633;49.168;9.848;2023-04-06T08:52:18;97078.28;;;12.37;53.17
40992;BME280;29633;49.168;9.848;2023-04-06T08:54:44;97077.06;;;12.41;53.00
40992;BME280;29633;49.168;9.848;2023-04-06T08:57:10;97079.75;;;12.51;52.93
40992;BME280;29633;49.168;9.848;2023-04-06T08:59:35;97075.09;;;12.54;53.25
40992;BME280;29633;49.168;9.848;2023-04-06T09:02:03;97067.91;;;12.67;53.06
40992;BME280;29633;49.168;9.848;2023-04-06T09:04:32;97071.84;;;12.82;52.95
40992;BME280;29633;49.168;9.848;2023-04-06T09:06:58;97075.56;;;12.90;52.92
40992;BME280;29633;49.168;9.848;2023-04-06T09:09:24;97064.50;;;12.97;52.88
40992;BME280;29633;49.168;9.848;2023-04-06T09:11:51;97058.66;;;13.05;52.74
40992;BME280;29633;49.168;9.848;2023-04-06T09:14:32;97061.25;;;13.05;52.96
40992;BME280;29633;49.168;9.848;2023-04-06T09:16:58;97064.75;;;13.15;52.75
40992;BME280;29633;49.168;9.848;2023-04-06T09:19:23;97062.16;;;13.24;52.88
40992;BME280;29633;49.168;9.848;2023-04-06T09:21:49;97069.75;;;13.37;52.66
40992;BME280;29633;49.168;9.848;2023-04-06T09:24:15;97057.69;;;13.46;52.65
40992;BME280;29633;49.168;9.848;2023-04-06T09:26:46;97065.16;;;13.60;52.63
40992;BME280;29633;49.168;9.848;2023-04-06T09:29:22;97063.50;;;13.68;52.52
40992;BME280;29633;49.168;9.848;2023-04-06T09:31:48;97056.78;;;13.75;52.68
40992;BME280;29633;49.168;9.848;2023-04-06T09:34:21;97052.00;;;13.80;52.61
40992;BME280;29633;49.168;9.848;2023-04-06T09:36:48;97056.09;;;13.83;52.71
40992;BME280;29633;49.168;9.848;2023-04-06T09:39:14;97060.91;;;13.88;52.69
40992;BME280;29633;49.168;9.848;2023-04-06T09:41:40;97056.94;;;13.93;52.59
40992;BME280;29633;49.168;9.848;2023-04-06T09:44:14;97059.00;;;13.99;52.59
40992;BME280;29633;49.168;9.848;2023-04-06T09:46:41;97054.47;;;14.11;52.27
40992;BME280;29633;49.168;9.848;2023-04-06T09:49:08;97059.13;;;14.17;52.36
40992;BME280;29633;49.168;9.848;2023-04-06T09:51:45;97052.97;;;14.18;52.53
40992;BME280;29633;49.168;9.848;2023-04-06T09:54:11;97050.63;;;14.24;52.47
40992;BME280;29633;49.168;9.848;2023-04-06T09:56:47;97050.78;;;14.42;52.30
40992;BME280;29633;49.168;9.848;2023-04-06T09:59:16;97044.56;;;14.53;52.00
40992;BME280;29633;49.168;9.848;2023-04-06T10:01:43;97044.81;;;14.59;52.17
40992;BME280;29633;49.168;9.848;2023-04-06T10:07:03;97047.00;;;14.64;52.13
40992;BME280;29633;49.168;9.848;2023-04-06T10:09:30;97041.75;;;14.73;52.18
40992;BME280;29633;49.168;9.848;2023-04-06T10:12:05;97035.78;;;14.91;51.90
40992;BME280;29633;49.168;9.848;2023-04-06T10:14:34;97041.09;;;15.08;52.05
40992;BME280;29633;49.168;9.848;2023-04-06T10:17:05;97034.03;;;15.18;52.13
40992;BME280;29633;49.168;9.848;2023-04-06T10:22:08;97032.72;;;15.32;51.92
40992;BME280;29633;49.168;9.848;2023-04-06T10:24:37;97023.09;;;15.33;52.04
40992;BME280;29633;49.168;9.848;2023-04-06T10:27:03;97028.41;;;15.41;52.05
40992;BME280;29633;49.168;9.848;2023-04-06T10:29:42;97019.97;;;15.47;51.87
40992;BME280;29633;49.168;9.848;2023-04-06T10:32:08;97022.31;;;15.50;51.91
40992;BME280;29633;49.168;9.848;2023-04-06T10:34:35;97025.63;;;15.52;51.98
40992;BME280;29633;49.168;9.848;2023-04-06T10:37:11;97030.84;;;15.52;52.02
40992;BME280;29633;49.168;9.848;2023-04-06T10:39:45;97025.69;;;15.60;51.98
40992;BME280;29633;49.168;9.848;2023-04-06T10:42:11;97033.72;;;15.76;51.93
40992;BME280;29633;49.168;9.848;2023-04-06T10:44:42;97026.00;;;15.92;51.89
40992;BME280;29633;49.168;9.848;2023-04-06T10:47:15;97017.16;;;16.11;51.69
40992;BME280;29633;49.168;9.848;2023-04-06T10:49:42;97022.22;;;16.30;51.58
40992;BME280;29633;49.168;9.848;2023-04-06T10:52:07;97026.59;;;16.47;51.63
40992;BME280;29633;49.168;9.848;2023-04-06T10:54:33;97024.91;;;16.56;51.45
40992;BME280;29633;49.168;9.848;2023-04-06T10:56:59;97021.97;;;16.59;51.64
40992;BME280;29633;49.168;9.848;2023-04-06T10:59:28;97021.97;;;16.59;51.62
40992;BME280;29633;49.168;9.848;2023-04-06T11:01:54;97025.47;;;16.50;52.02
40992;BME280;29633;49.168;9.848;2023-04-06T11:04:21;97023.00;;;16.48;51.70
40992;BME280;29633;49.168;9.848;2023-04-06T11:06:48;97024.81;;;16.48;51.80
40992;BME280;29633;49.168;9.848;2023-04-06T11:09:24;97020.50;;;16.56;51.67
40992;BME280;29633;49.168;9.848;2023-04-06T11:11:50;97022.22;;;16.73;51.84
40992;BME280;29633;49.168;9.848;2023-04-06T11:14:15;97017.38;;;16.87;51.64
40992;BME280;29633;49.168;9.848;2023-04-06T11:16:41;97010.72;;;16.92;51.67
40992;BME280;29633;49.168;9.848;2023-04-06T11:19:07;97006.16;;;17.02;51.51
40992;BME280;29633;49.168;9.848;2023-04-06T11:24:11;97004.78;;;17.24;51.57
40992;BME280;29633;49.168;9.848;2023-04-06T11:26:44;97005.97;;;17.38;51.38
40992;BME280;29633;49.168;9.848;2023-04-06T11:29:12;97002.22;;;17.48;51.22
40992;BME280;29633;49.168;9.848;2023-04-06T11:32:03;96999.66;;;17.56;51.38
40992;BME280;29633;49.168;9.848;2023-04-06T11:34:30;97000.81;;;17.70;51.47
40992;BME280;29633;49.168;9.848;2023-04-06T11:36:58;96995.94;;;17.83;51.15
40992;BME280;29633;49.168;9.848;2023-04-06T11:39:25;96989.22;;;17.97;51.20
40992;BME280;29633;49.168;9.848;2023-04-06T11:42:01;96988.56;;;18.11;51.10
40992;BME280;29633;49.168;9.848;2023-04-06T11:47:06;96983.94;;;18.37;51.12
40992;BME280;29633;49.168;9.848;2023-04-06T11:49:32;96976.84;;;18.46;51.26
40992;BME280;29633;49.168;9.848;2023-04-06T11:51:59;96969.16;;;18.52;51.17
40992;BME280;29633;49.168;9.848;2023-04-06T11:54:37;96969.47;;;18.65;50.98
40992;BME280;29633;49.168;9.848;2023-04-06T11:57:04;96968.16;;;18.70;51.11
40992;BME280;29633;49.168;9.848;2023-04-06T11:59:31;96959.44;;;18.77;50.93
40992;BME280;29633;49.168;9.848;2023-04-06T12:01:57;96964.63;;;18.85;50.97
40992;BME280;29633;49.168;9.848;2023-04-06T12:04:23;96961.81;;;18.95;50.94
40992;BME280;29633;49.168;9.848;2023-04-06T12:06:49;96965.22;;;19.03;51.07
40992;BME280;29633;49.168;9.848;2023-04-06T12:09:16;96956.47;;;19.11;50.98
40992;BME280;29633;49.168;9.848;2023-04-06T12:11:43;96957.44;;;19.18;51.11
40992;BME280;29633;49.168;9.848;2023-04-06T12:14:08;96962.97;;;19.31;51.06
40992;BME280;29633;49.168;9.848;2023-04-06T12:16:34;96960.28;;;19.39;50.66
40992;BME280;29633;49.168;9.848;2023-04-06T12:19:00;96955.84;;;19.40;50.97
40992;BME280;29633;49.168;9.848;2023-04-06T12:21:27;96952.72;;;19.44;50.78
40992;BME280;29633;49.168;9.848;2023-04-06T12:23:54;96952.72;;;19.44;50.96
40992;BME280;29633;49.168;9.848;2023-04-06T12:26:20;96946.13;;;19.40;51.04
40992;BME280;29633;49.168;9.848;2023-04-06T12:28:47;96941.94;;;19.31;50.72
40992;BME280;29633;49.168;9.848;2023-04-06T12:31:20;96946.19;;;19.32;50.98
40992;BME280;29633;49.168;9.848;2023-04-06T12:33:46;96940.94;;;19.32;50.47
40992;BME280;29633;49.168;9.848;2023-04-06T12:36:13;96942.72;;;19.32;50.98
40992;BME280;29633;49.168;9.848;2023-04-06T12:38:39;96937.47;;;19.32;50.74
40992;BME280;29633;49.168;9.848;2023-04-06T12:41:06;96941.31;;;19.21;50.67
40992;BME280;29633;49.168;9.848;2023-04-06T12:43:32;96937.75;;;19.14;50.55
40992;BME280;29633;49.168;9.848;2023-04-06T12:45:57;96942.00;;;19.15;50.37
40992;BME280;29633;49.168;9.848;2023-04-06T12:48:25;96938.06;;;19.19;50.36
40992;BME280;29633;49.168;9.848;2023-04-06T12:51:09;96928.84;;;19.23;50.34
40992;BME280;29633;49.168;9.848;2023-04-06T12:53:35;96933.34;;;19.37;50.69
40992;BME280;29633;49.168;9.848;2023-04-06T12:56:01;96927.38;;;19.51;50.20
40992;BME280;29633;49.168;9.848;2023-04-06T12:58:27;96928.19;;;19.52;50.36
40992;BME280;29633;49.168;9.848;2023-04-06T13:00:53;96928.91;;;19.46;50.13
40992;BME280;29633;49.168;9.848;2023-04-06T13:03:20;96935.84;;;19.31;50.43
40992;BME280;29633;49.168;9.848;2023-04-06T13:05:50;96937.59;;;19.15;50.47
40992;BME280;29633;49.168;9.848;2023-04-06T13:08:17;96930.22;;;19.11;50.34
40992;BME280;29633;49.168;9.848;2023-04-06T13:10:46;96926.09;;;19.16;50.22
40992;BME280;29633;49.168;9.848;2023-04-06T13:13:14;96923.09;;;19.20;50.12
40992;BME280;29633;49.168;9.848;2023-04-06T13:15:40;96923.59;;;19.23;50.10